METAR Data
IDs: Format: Raw Decoded Include TAF

Data at: 1828 UTC 26 Sep 2021

LSZG 261820Z AUTO 15001KT CAVOK 16/15 Q1020